sensor_id;sensor_type;location;lat;lon;timestamp;pressure;altitude;pressure_sealevel;temperature;humidity
66021;BME280;52789;59.980;30.346;2023-04-07T00:00:47;102966.09;;;1.03;73.92
66021;BME280;52789;59.980;30.346;2023-04-07T00:03:12;102969.63;;;1.02;73.74
66021;BME280;52789;59.980;30.346;2023-04-07T00:05:38;102958.22;;;1.03;74.18
66021;BME280;52789;59.980;30.346;2023-04-07T00:08:03;102963.50;;;1.01;73.38
66021;BME280;52789;59.980;30.346;2023-04-07T00:10:28;102962.66;;;1.01;73.62
66021;BME280;52789;59.980;30.346;2023-04-07T00:12:54;102960.09;;;0.99;73.53
66021;BME280;52789;59.980;30.346;2023-04-07T00:15:19;102957.41;;;1.01;73.22
66021;BME280;52789;59.980;30.346;2023-04-07T00:17:45;102959.22;;;0.99;72.83
66021;BME280;52789;59.980;30.346;2023-04-07T00:20:10;102962.84;;;0.95;73.73
66021;BME280;52789;59.980;30.346;2023-04-07T00:22:36;102970.91;;;0.88;74.50
66021;BME280;52789;59.980;30.346;2023-04-07T00:25:01;102964.81;;;0.86;74.03
66021;BME280;52789;59.980;30.346;2023-04-07T00:27:27;102957.84;;;0.87;73.98
66021;BME280;52789;59.980;30.346;2023-04-07T00:29:53;102963.09;;;0.87;73.59
66021;BME280;52789;59.980;30.346;2023-04-07T00:32:19;102956.25;;;0.81;74.02
66021;BME280;52789;59.980;30.346;2023-04-07T00:34:45;102949.19;;;0.83;74.02
66021;BME280;52789;59.980;30.346;2023-04-07T00:37:15;102956.28;;;0.80;74.21
66021;BME280;52789;59.980;30.346;2023-04-07T00:39:40;102959.88;;;0.77;73.83
66021;BME280;52789;59.980;30.346;2023-04-07T00:42:05;102957.28;;;0.76;74.32
66021;BME280;52789;59.980;30.346;2023-04-07T00:44:32;102958.16;;;0.76;74.30
66021;BME280;52789;59.980;30.346;2023-04-07T00:46:58;102955.56;;;0.75;74.54
66021;BME280;52789;59.980;30.346;2023-04-07T00:49:23;102955.56;;;0.75;74.30
66021;BME280;52789;59.980;30.346;2023-04-07T00:51:49;102955.66;;;0.72;73.85
66021;BME280;52789;59.980;30.346;2023-04-07T00:54:15;102947.84;;;0.70;74.24
66021;BME280;52789;59.980;30.346;2023-04-07T00:56:42;102949.66;;;0.68;74.48
66021;BME280;52789;59.980;30.346;2023-04-07T00:59:07;102952.28;;;0.68;74.50
66021;BME280;52789;59.980;30.346;2023-04-07T01:01:35;102950.72;;;0.63;75.52
66021;BME280;52789;59.980;30.346;2023-04-07T01:04:08;102951.66;;;0.60;75.49
66021;BME280;52789;59.980;30.346;2023-04-07T01:06:37;102951.66;;;0.60;75.29
66021;BME280;52789;59.980;30.346;2023-04-07T01:09:06;102955.19;;;0.59;75.38
66021;BME280;52789;59.980;30.346;2023-04-07T01:11:36;102954.22;;;0.61;75.22
66021;BME280;52789;59.980;30.346;2023-04-07T01:14:05;102948.19;;;0.59;75.14
66021;BME280;52789;59.980;30.346;2023-04-07T01:16:32;102951.81;;;0.54;75.82
66021;BME280;52789;59.980;30.346;2023-04-07T01:19:00;102953.66;;;0.50;75.77
66021;BME280;52789;59.980;30.346;2023-04-07T01:21:28;102951.19;;;0.46;76.32
66021;BME280;52789;59.980;30.346;2023-04-07T01:26:40;102948.75;;;0.40;76.66
66021;BME280;52789;59.980;30.346;2023-04-07T01:29:10;102953.19;;;0.38;77.16
66021;BME280;52789;59.980;30.346;2023-04-07T01:31:39;102951.59;;;0.32;77.81
66021;BME280;52789;59.980;30.346;2023-04-07T01:34:05;102956.03;;;0.28;78.08
66021;BME280;52789;59.980;30.346;2023-04-07T01:36:33;102950.03;;;0.25;78.43
66021;BME280;52789;59.980;30.346;2023-04-07T01:38:59;102949.16;;;0.24;78.49
66021;BME280;52789;59.980;30.346;2023-04-07T01:41:25;102951.78;;;0.24;78.36
66021;BME280;52789;59.980;30.346;2023-04-07T01:43:51;102947.44;;;0.23;78.07
66021;BME280;52789;59.980;30.346;2023-04-07T01:46:17;102948.41;;;0.21;78.52
66021;BME280;52789;59.980;30.346;2023-04-07T01:48:42;102947.63;;;0.17;79.12
66021;BME280;52789;59.980;30.346;2023-04-07T01:51:08;102952.91;;;0.16;79.69
66021;BME280;52789;59.980;30.346;2023-04-07T01:53:36;102957.25;;;0.17;78.99
66021;BME280;52789;59.980;30.346;2023-04-07T01:56:02;102962.44;;;0.18;79.25
66021;BME280;52789;59.980;30.346;2023-04-07T01:58:28;102959.81;;;0.18;78.92
66021;BME280;52789;59.980;30.346;2023-04-07T02:00:53;102953.72;;;0.18;78.81
66021;BME280;52789;59.980;30.346;2023-04-07T02:03:35;102960.78;;;0.16;78.49
66021;BME280;52789;59.980;30.346;2023-04-07T02:06:05;102959.91;;;0.15;78.41
66021;BME280;52789;59.980;30.346;2023-04-07T02:08:32;102951.16;;;0.16;78.28
66021;BME280;52789;59.980;30.346;2023-04-07T02:10:57;102958.19;;;0.14;78.52
66021;BME280;52789;59.980;30.346;2023-04-07T02:13:24;102956.50;;;0.12;79.01
66021;BME280;52789;59.980;30.346;2023-04-07T02:15:51;102953.13;;;0.08;79.02
66021;BME280;52789;59.980;30.346;2023-04-07T02:18:18;102948.78;;;0.07;79.17
66021;BME280;52789;59.980;30.346;2023-04-07T02:20:44;102954.03;;;0.07;79.18
66021;BME280;52789;59.980;30.346;2023-04-07T02:23:11;102955.78;;;0.07;79.17
66021;BME280;52789;59.980;30.346;2023-04-07T02:25:37;102957.63;;;0.03;79.40
66021;BME280;52789;59.980;30.346;2023-04-07T02:28:02;102956.88;;;-0.02;80.00
66021;BME280;52789;59.980;30.346;2023-04-07T02:30:28;102958.59;;;-0.01;80.11
66021;BME280;52789;59.980;30.346;2023-04-07T02:32:53;102965.56;;;0.00;80.01
66021;BME280;52789;59.980;30.346;2023-04-07T02:35:19;102960.41;;;-0.03;79.70
66021;BME280;52789;59.980;30.346;2023-04-07T02:37:45;102964.78;;;-0.04;79.93
66021;BME280;52789;59.980;30.346;2023-04-07T02:40:11;102961.34;;;-0.06;79.96
66021;BME280;52789;59.980;30.346;2023-04-07T02:42:37;102965.81;;;-0.09;80.42
66021;BME280;52789;59.980;30.346;2023-04-07T02:45:03;102969.31;;;-0.10;80.49
66021;BME280;52789;59.980;30.346;2023-04-07T02:47:29;102965.88;;;-0.12;80.22
66021;BME280;52789;59.980;30.346;2023-04-07T02:49:54;102958.03;;;-0.12;80.47
66021;BME280;52789;59.980;30.346;2023-04-07T02:52:20;102951.94;;;-0.13;80.55
66021;BME280;52789;59.980;30.346;2023-04-07T02:54:45;102954.56;;;-0.13;80.39
66021;BME280;52789;59.980;30.346;2023-04-07T02:57:11;102964.09;;;-0.10;80.38
66021;BME280;52789;59.980;30.346;2023-04-07T02:59:37;102957.13;;;-0.11;80.38
66021;BME280;52789;59.980;30.346;2023-04-07T03:02:03;102961.53;;;-0.13;80.58
66021;BME280;52789;59.980;30.346;2023-04-07T03:04:28;102962.44;;;-0.14;80.45
66021;BME280;52789;59.980;30.346;2023-04-07T03:06:53;102960.69;;;-0.14;80.67
66021;BME280;52789;59.980;30.346;2023-04-07T03:09:20;102966.75;;;-0.12;81.05
66021;BME280;52789;59.980;30.346;2023-04-07T03:11:46;102969.31;;;-0.10;80.81
66021;BME280;52789;59.980;30.346;2023-04-07T03:14:11;102963.13;;;-0.08;80.76
66021;BME280;52789;59.980;30.346;2023-04-07T03:16:36;102960.47;;;-0.06;80.88
66021;BME280;52789;59.980;30.346;2023-04-07T03:19:01;102964.78;;;-0.04;80.65
66021;BME280;52789;59.980;30.346;2023-04-07T03:21:27;102959.50;;;-0.02;80.91
66021;BME280;52789;59.980;30.346;2023-04-07T03:23:53;102954.19;;;0.01;80.52
66021;BME280;52789;59.980;30.346;2023-04-07T03:26:18;102965.50;;;0.03;80.64
66021;BME280;52789;59.980;30.346;2023-04-07T03:28:44;102955.88;;;0.04;80.21
66021;BME280;52789;59.980;30.346;2023-04-07T03:31:09;102967.22;;;0.04;80.69
66021;BME280;52789;59.980;30.346;2023-04-07T03:33:34;102962.06;;;0.01;80.55
66021;BME280;52789;59.980;30.346;2023-04-07T03:36:00;102958.72;;;-0.06;81.35
66021;BME280;52789;59.980;30.346;2023-04-07T03:38:25;102958.75;;;-0.07;81.35
66021;BME280;52789;59.980;30.346;2023-04-07T03:40:50;102968.41;;;-0.09;81.71
66021;BME280;52789;59.980;30.346;2023-04-07T03:43:16;102971.03;;;-0.09;81.66
66021;BME280;52789;59.980;30.346;2023-04-07T03:45:41;102968.41;;;-0.09;82.00
66021;BME280;52789;59.980;30.346;2023-04-07T03:48:07;102967.44;;;-0.05;81.77
66021;BME280;52789;59.980;30.346;2023-04-07T03:50:36;102969.06;;;-0.01;82.39
66021;BME280;52789;59.980;30.346;2023-04-07T03:53:02;102964.63;;;0.03;81.83
66021;BME280;52789;59.980;30.346;2023-04-07T03:55:28;102970.72;;;0.03;81.83
66021;BME280;52789;59.980;30.346;2023-04-07T03:57:53;102969.06;;;-0.01;81.71
66021;BME280;52789;59.980;30.346;2023-04-07T04:00:18;102971.47;;;0.08;81.04
66021;BME280;52789;59.980;30.346;2023-04-07T04:02:44;102971.28;;;0.14;81.66
66021;BME280;52789;59.980;30.346;2023-04-07T04:05:11;102973.81;;;0.17;81.57
66021;BME280;52789;59.980;30.346;2023-04-07T04:07:37;102975.47;;;0.21;81.14
66021;BME280;52789;59.980;30.346;2023-04-07T04:10:02;102967.63;;;0.20;81.07
66021;BME280;52789;59.980;30.346;2023-04-07T04:12:28;102965.09;;;0.17;81.29
66021;BME280;52789;59.980;30.346;2023-04-07T04:14:54;102978.25;;;0.15;81.49
66021;BME280;52789;59.980;30.346;2023-04-07T04:17:19;102980.09;;;0.12;81.31
66021;BME280;52789;59.980;30.346;2023-04-07T04:19:44;102970.38;;;0.15;81.61
66021;BME280;52789;59.980;30.346;2023-04-07T04:22:10;102975.41;;;0.23;81.36
66021;BME280;52789;59.980;30.346;2023-04-07T04:24:35;102980.59;;;0.24;81.39
66021;BME280;52789;59.980;30.346;2023-04-07T04:27:00;102986.75;;;0.23;81.12
66021;BME280;52789;59.980;30.346;2023-04-07T04:29:26;102977.88;;;0.29;80.92
66021;BME280;52789;59.980;30.346;2023-04-07T04:35:13;102987.16;;;0.41;80.78
66021;BME280;52789;59.980;30.346;2023-04-07T04:37:38;102988.78;;;0.45;81.02
66021;BME280;52789;59.980;30.346;2023-04-07T04:40:04;102982.66;;;0.46;81.06
66021;BME280;52789;59.980;30.346;2023-04-07T04:42:32;102989.66;;;0.45;81.15
66021;BME280;52789;59.980;30.346;2023-04-07T04:44:58;102986.97;;;0.47;80.86
66021;BME280;52789;59.980;30.346;2023-04-07T04:47:23;102986.06;;;0.48;80.40
66021;BME280;52789;59.980;30.346;2023-04-07T04:49:48;102991.22;;;0.51;80.44
66021;BME280;52789;59.980;30.346;2023-04-07T04:52:14;102985.09;;;0.52;80.79
66021;BME280;52789;59.980;30.346;2023-04-07T04:54:39;102985.94;;;0.52;79.85
66021;BME280;52789;59.980;30.346;2023-04-07T04:57:04;102988.41;;;0.58;80.57
66021;BME280;52789;59.980;30.346;2023-04-07T04:59:30;102984.75;;;0.64;80.13
66021;BME280;52789;59.980;30.346;2023-04-07T05:01:55;102986.28;;;0.71;80.31
66021;BME280;52789;59.980;30.346;2023-04-07T05:04:21;102980.84;;;0.77;79.74
66021;BME280;52789;59.980;30.346;2023-04-07T05:06:46;102982.53;;;0.80;79.45
66021;BME280;52789;59.980;30.346;2023-04-07T05:09:12;102983.19;;;0.86;79.70
66021;BME280;52789;59.980;30.346;2023-04-07T05:11:37;102976.88;;;0.93;79.42
66021;BME280;52789;59.980;30.346;2023-04-07T05:14:02;102980.13;;;1.02;79.23
66021;BME280;52789;59.980;30.346;2023-04-07T05:16:27;102976.38;;;1.09;78.92
66021;BME280;52789;59.980;30.346;2023-04-07T05:18:53;102978.78;;;1.16;78.61
66021;BME280;52789;59.980;30.346;2023-04-07T05:21:18;102978.00;;;1.13;77.07
66021;BME280;52789;59.980;30.346;2023-04-07T05:23:46;102976.97;;;1.18;77.92
66021;BME280;52789;59.980;30.346;2023-04-07T05:26:12;102981.19;;;1.24;77.64
66021;BME280;52789;59.980;30.346;2023-04-07T05:28:37;102976.53;;;1.32;77.89
66021;BME280;52789;59.980;30.346;2023-04-07T05:31:02;102986.06;;;1.35;76.03
66021;BME280;52789;59.980;30.346;2023-04-07T05:33:28;102980.78;;;1.36;76.01
66021;BME280;52789;59.980;30.346;2023-04-07T05:35:53;102981.63;;;1.37;75.57
66021;BME280;52789;59.980;30.346;2023-04-07T05:38:18;102982.25;;;1.45;76.06
66021;BME280;52789;59.980;30.346;2023-04-07T05:40:45;102983.81;;;1.50;76.30
66021;BME280;52789;59.980;30.346;2023-04-07T05:43:11;102986.25;;;1.57;75.75
66021;BME280;52789;59.980;30.346;2023-04-07T05:45:36;102978.16;;;1.63;75.10
66021;BME280;52789;59.980;30.346;2023-04-07T05:48:02;102984.16;;;1.66;75.39
66021;BME280;52789;59.980;30.346;2023-04-07T05:50:27;102977.03;;;1.70;74.60
66021;BME280;52789;59.980;30.346;2023-04-07T05:52:52;102982.06;;;1.77;74.78
66021;BME280;52789;59.980;30.346;2023-04-07T05:55:18;102980.13;;;1.82;74.49
66021;BME280;52789;59.980;30.346;2023-04-07T05:57:43;102973.75;;;1.90;74.74
66021;BME280;52789;59.980;30.346;2023-04-07T06:00:08;102976.91;;;1.99;74.62
66021;BME280;52789;59.980;30.346;2023-04-07T06:02:34;102975.84;;;2.05;73.57
66021;BME280;52789;59.980;30.346;2023-04-07T06:05:00;102973.06;;;2.09;73.15
66021;BME280;52789;59.980;30.346;2023-04-07T06:07:25;102972.84;;;2.15;73.20
66021;BME280;52789;59.980;30.346;2023-04-07T06:09:50;102973.53;;;2.21;72.78
66021;BME280;52789;59.980;30.346;2023-04-07T06:12:16;102977.66;;;2.28;73.43
66021;BME280;52789;59.980;30.346;2023-04-07T06:14:41;102971.34;;;2.33;72.04
66021;BME280;52789;59.980;30.346;2023-04-07T06:17:09;102971.22;;;2.36;71.78
66021;BME280;52789;59.980;30.346;2023-04-07T06:19:35;102979.84;;;2.40;71.38
66021;BME280;52789;59.980;30.346;2023-04-07T06:22:00;102982.19;;;2.47;70.93
66021;BME280;52789;59.980;30.346;2023-04-07T06:24:25;102981.91;;;2.55;71.41
66021;BME280;52789;59.980;30.346;2023-04-07T06:26:51;102983.50;;;2.59;70.69
66021;BME280;52789;59.980;30.346;2023-04-07T06:29:16;102974.66;;;2.62;69.81
66021;BME280;52789;59.980;30.346;2023-04-07T06:31:42;102973.09;;;2.56;70.29
66021;BME280;52789;59.980;30.346;2023-04-07T06:34:07;102976.47;;;2.60;70.39
66021;BME280;52789;59.980;30.346;2023-04-07T06:36:33;102977.06;;;2.68;70.24
66021;BME280;52789;59.980;30.346;2023-04-07T06:38:58;102977.63;;;2.76;69.43
66021;BME280;52789;59.980;30.346;2023-04-07T06:41:24;102983.38;;;2.86;69.86
66021;BME280;52789;59.980;30.346;2023-04-07T06:43:49;102981.44;;;2.91;69.13
66021;BME280;52789;59.980;30.346;2023-04-07T06:46:18;102984.47;;;3.03;69.31
66021;BME280;52789;59.980;30.346;2023-04-07T06:48:43;102983.22;;;3.12;68.76
66021;BME280;52789;59.980;30.346;2023-04-07T06:51:09;102981.03;;;3.23;68.74
66021;BME280;52789;59.980;30.346;2023-04-07T06:53:34;102981.59;;;3.31;68.23
66021;BME280;52789;59.980;30.346;2023-04-07T06:56:06;102981.47;;;3.34;67.63
66021;BME280;52789;59.980;30.346;2023-04-07T06:58:32;102983.06;;;3.38;67.17
66021;BME280;52789;59.980;30.346;2023-04-07T07:00:59;102981.09;;;3.43;66.35
66021;BME280;52789;59.980;30.346;2023-04-07T07:03:24;102987.91;;;3.49;66.96
66021;BME280;52789;59.980;30.346;2023-04-07T07:05:54;102971.91;;;3.54;66.40
66021;BME280;52789;59.980;30.346;2023-04-07T07:08:23;102980.22;;;3.65;66.40
66021;BME280;52789;59.980;30.346;2023-04-07T07:10:49;102983.31;;;3.74;65.76
66021;BME280;52789;59.980;30.346;2023-04-07T07:13:14;102986.50;;;3.83;65.81
66021;BME280;52789;59.980;30.346;2023-04-07T07:15:40;102988.94;;;3.87;64.99
66021;BME280;52789;59.980;30.346;2023-04-07T07:18:05;102985.13;;;3.94;63.94
66021;BME280;52789;59.980;30.346;2023-04-07T07:20:31;102986.56;;;4.01;64.13
66021;BME280;52789;59.980;30.346;2023-04-07T07:22:56;102989.97;;;4.03;62.76
66021;BME280;52789;59.980;30.346;2023-04-07T07:25:22;102989.88;;;4.07;62.79
66021;BME280;52789;59.980;30.346;2023-04-07T07:27:50;102982.47;;;4.15;64.50
66021;BME280;52789;59.980;30.346;2023-04-07T07:30:20;102982.00;;;4.25;63.68
66021;BME280;52789;59.980;30.346;2023-04-07T07:32:46;102980.63;;;4.37;63.14
66021;BME280;52789;59.980;30.346;2023-04-07T07:35:11;102975.69;;;4.48;62.92
66021;BME280;52789;59.980;30.346;2023-04-07T07:37:37;102983.19;;;4.57;61.37
66021;BME280;52789;59.980;30.346;2023-04-07T07:40:02;102981.88;;;4.68;61.83
66021;BME280;52789;59.980;30.346;2023-04-07T07:42:29;102980.78;;;4.72;60.92
66021;BME280;52789;59.980;30.346;2023-04-07T07:44:55;102979.59;;;4.79;61.50
66021;BME280;52789;59.980;30.346;2023-04-07T07:47:20;102980.16;;;4.85;60.92
66021;BME280;52789;59.980;30.346;2023-04-07T07:49:45;102981.00;;;4.86;58.00
66021;BME280;52789;59.980;30.346;2023-04-07T07:52:15;102973.44;;;4.97;60.04
66021;BME280;52789;59.980;30.346;2023-04-07T07:54:40;102970.22;;;5.09;59.79
66021;BME280;52789;59.980;30.346;2023-04-07T07:57:06;102976.84;;;5.18;58.04
66021;BME280;52789;59.980;30.346;2023-04-07T07:59:31;102960.28;;;5.14;56.93
66021;BME280;52789;59.980;30.346;2023-04-07T08:01:57;102969.19;;;5.31;58.12
66021;BME280;52789;59.980;30.346;2023-04-07T08:04:22;102974.72;;;5.43;58.99
66021;BME280;52789;59.980;30.346;2023-04-07T08:06:48;102960.34;;;5.49;56.54
66021;BME280;52789;59.980;30.346;2023-04-07T08:09:13;102966.19;;;5.55;56.14
66021;BME280;52789;59.980;30.346;2023-04-07T08:11:39;102964.03;;;5.64;56.85
66021;BME280;52789;59.980;30.346;2023-04-07T08:14:04;102971.41;;;5.74;56.12
66021;BME280;52789;59.980;30.346;2023-04-07T08:16:30;102962.63;;;5.74;54.02
66021;BME280;52789;59.980;30.346;2023-04-07T08:18:55;102965.06;;;5.78;54.26
66021;BME280;52789;59.980;30.346;2023-04-07T08:21:20;102965.50;;;5.86;53.58
66021;BME280;52789;59.980;30.346;2023-04-07T08:23:46;102970.50;;;5.93;53.57
66021;BME280;52789;59.980;30.346;2023-04-07T08:26:11;102962.25;;;5.99;53.46
66021;BME280;52789;59.980;30.346;2023-04-07T08:28:36;102964.75;;;6.02;52.64
66021;BME280;52789;59.980;30.346;2023-04-07T08:31:02;102958.34;;;6.06;53.44
66021;BME280;52789;59.980;30.346;2023-04-07T08:33:27;102961.16;;;6.03;52.11
66021;BME280;52789;59.980;30.346;2023-04-07T08:35:52;102960.13;;;6.05;53.50
66021;BME280;52789;59.980;30.346;2023-04-07T08:38:18;102963.00;;;6.18;53.41
66021;BME280;52789;59.980;30.346;2023-04-07T08:40:43;102961.75;;;6.25;52.12
66021;BME280;52789;59.980;30.346;2023-04-07T08:43:08;102965.69;;;6.34;52.44
66021;BME280;52789;59.980;30.346;2023-04-07T08:45:36;102959.25;;;6.39;51.74
66021;BME280;52789;59.980;30.346;2023-04-07T08:48:03;102961.47;;;6.47;52.78
66021;BME280;52789;59.980;30.346;2023-04-07T08:50:28;102957.38;;;6.41;51.32
66021;BME280;52789;59.980;30.346;2023-04-07T08:52:55;102952.06;;;6.41;51.12
66021;BME280;52789;59.980;30.346;2023-04-07T08:55:21;102954.13;;;6.52;52.62
66021;BME280;52789;59.980;30.346;2023-04-07T08:57:46;102953.44;;;6.64;51.82
66021;BME280;52789;59.980;30.346;2023-04-07T09:00:12;102945.13;;;6.72;50.85
66021;BME280;52789;59.980;30.346;2023-04-07T09:02:39;102937.09;;;6.73;50.46
66021;BME280;52789;59.980;30.346;2023-04-07T09:05:06;102941.34;;;6.76;50.98
66021;BME280;52789;59.980;30.346;2023-04-07T09:07:32;102944.94;;;6.75;49.60
66021;BME280;52789;59.980;30.346;2023-04-07T09:09:58;102947.16;;;6.82;50.06
66021;BME280;52789;59.980;30.346;2023-04-07T09:12:24;102952.88;;;6.91;49.03
66021;BME280;52789;59.980;30.346;2023-04-07T09:14:51;102942.03;;;6.95;48.33
66021;BME280;52789;59.980;30.346;2023-04-07T09:17:17;102940.09;;;6.99;48.56
66021;BME280;52789;59.980;30.346;2023-04-07T09:19:42;102939.13;;;7.00;47.97
66021;BME280;52789;59.980;30.346;2023-04-07T09:22:08;102935.38;;;7.04;47.68
66021;BME280;52789;59.980;30.346;2023-04-07T09:24:36;102937.75;;;7.08;47.69
66021;BME280;52789;59.980;30.346;2023-04-07T09:27:15;102941.75;;;7.15;48.26
66021;BME280;52789;59.980;30.346;2023-04-07T09:29:41;102951.06;;;7.23;47.08
66021;BME280;52789;59.980;30.346;2023-04-07T09:32:08;102940.31;;;7.26;47.23
66021;BME280;52789;59.980;30.346;2023-04-07T09:34:34;102935.34;;;7.20;46.22
66021;BME280;52789;59.980;30.346;2023-04-07T09:37:00;102931.91;;;7.18;47.56
66021;BME280;52789;59.980;30.346;2023-04-07T09:39:26;102925.69;;;7.19;47.42
66021;BME280;52789;59.980;30.346;2023-04-07T09:41:51;102929.34;;;7.32;47.18
66021;BME280;52789;59.980;30.346;2023-04-07T09:44:17;102921.31;;;7.33;46.28
66021;BME280;52789;59.980;30.346;2023-04-07T09:49:17;102927.66;;;7.31;46.38
66021;BME280;52789;59.980;30.346;2023-04-07T09:51:57;102924.72;;;7.35;46.75
66021;BME280;52789;59.980;30.346;2023-04-07T09:54:57;102926.34;;;7.38;45.26
66021;BME280;52789;59.980;30.346;2023-04-07T09:57:16;102918.69;;;7.47;46.41
66021;BME280;52789;59.980;30.346;2023-04-07T09:59:43;102921.84;;;7.54;45.75
66021;BME280;52789;59.980;30.346;2023-04-07T10:02:08;102920.72;;;7.58;45.59
66021;BME280;52789;59.980;30.346;2023-04-07T10:04:34;102919.22;;;7.54;45.43
66021;BME280;52789;59.980;30.346;2023-04-07T10:06:59;102920.06;;;7.55;45.04
66021;BME280;52789;59.980;30.346;2023-04-07T10:09:25;102919.22;;;7.54;44.85
66021;BME280;52789;59.980;30.346;2023-04-07T10:11:51;102918.44;;;7.52;45.04
66021;BME280;52789;59.980;30.346;2023-04-07T10:14:18;102914.84;;;7.53;45.82
66021;BME280;52789;59.980;30.346;2023-04-07T10:16:43;102903.97;;;7.58;45.62
66021;BME280;52789;59.980;30.346;2023-04-07T10:19:10;102910.69;;;7.63;45.56
66021;BME280;52789;59.980;30.346;2023-04-07T10:21:36;102903.31;;;7.68;45.96
66021;BME280;52789;59.980;30.346;2023-04-07T10:26:44;102901.63;;;7.67;45.53
66021;BME280;52789;59.980;30.346;2023-04-07T10:29:11;102899.53;;;7.72;46.45
66021;BME280;52789;59.980;30.346;2023-04-07T10:31:39;102896.69;;;7.75;45.78
66021;BME280;52789;59.980;30.346;2023-04-07T10:34:05;102900.63;;;7.84;46.83
66021;BME280;52789;59.980;30.346;2023-04-07T10:36:30;102900.81;;;7.81;44.46
66021;BME280;52789;59.980;30.346;2023-04-07T10:41:33;102901.66;;;7.82;46.08
66021;BME280;52789;59.980;30.346;2023-04-07T10:44:02;102897.59;;;7.90;46.14
66021;BME280;52789;59.980;30.346;2023-04-07T10:49:12;102881.00;;;8.01;47.10
66021;BME280;52789;59.980;30.346;2023-04-07T10:51:38;102880.59;;;8.07;45.45
66021;BME280;52789;59.980;30.346;2023-04-07T10:54:22;102887.81;;;8.05;45.60
66021;BME280;52789;59.980;30.346;2023-04-07T10:59:27;102874.94;;;8.13;47.20
66021;BME280;52789;59.980;30.346;2023-04-07T11:04:36;102871.16;;;8.17;45.45
66021;BME280;52789;59.980;30.346;2023-04-07T11:07:02;102880.25;;;8.13;45.77
66021;BME280;52789;59.980;30.346;2023-04-07T11:09:27;102885.28;;;8.18;45.16
66021;BME280;52789;59.980;30.346;2023-04-07T11:11:52;102875.88;;;8.26;46.53
66021;BME280;52789;59.980;30.346;2023-04-07T11:14:28;102872.81;;;8.32;44.68
66021;BME280;52789;59.980;30.346;2023-04-07T11:16:53;102867.94;;;8.41;46.72
66021;BME280;52789;59.980;30.346;2023-04-07T11:19:19;102862.03;;;8.50;45.95
66021;BME280;52789;59.980;30.346;2023-04-07T11:21:44;102861.94;;;8.51;46.24
66021;BME280;52789;59.980;30.346;2023-04-07T11:24:09;102861.19;;;8.49;44.76
66021;BME280;52789;59.980;30.346;2023-04-07T11:26:39;102857.88;;;8.46;44.67
66021;BME280;52789;59.980;30.346;2023-04-07T11:29:04;102862.25;;;8.47;44.18
66021;BME280;52789;59.980;30.346;2023-04-07T11:31:30;102859.47;;;8.48;45.06
66021;BME280;52789;59.980;30.346;2023-04-07T11:34:00;102858.22;;;8.54;45.10
66021;BME280;52789;59.980;30.346;2023-04-07T11:37:17;102858.88;;;8.57;44.72
66021;BME280;52789;59.980;30.346;2023-04-07T11:39:19;102862.25;;;8.47;44.33
66021;BME280;52789;59.980;30.346;2023-04-07T11:41:46;102862.44;;;8.44;43.61
66021;BME280;52789;59.980;30.346;2023-04-07T11:44:12;102851.72;;;8.45;44.00
66021;BME280;52789;59.980;30.346;2023-04-07T11:49:18;102847.59;;;8.54;44.61
66021;BME280;52789;59.980;30.346;2023-04-07T11:51:44;102848.25;;;8.57;44.59
66021;BME280;52789;59.980;30.346;2023-04-07T11:54:11;102835.94;;;8.56;44.40
66021;BME280;52789;59.980;30.346;2023-04-07T11:56:46;102840.00;;;8.62;44.64
66021;BME280;52789;59.980;30.346;2023-04-07T11:59:18;102834.88;;;8.59;43.75
66021;BME280;52789;59.980;30.346;2023-04-07T12:01:44;102836.59;;;8.60;44.18
66021;BME280;52789;59.980;30.346;2023-04-07T12:04:13;102829.16;;;8.65;44.29
66021;BME280;52789;59.980;30.346;2023-04-07T12:06:39;102838.47;;;8.72;45.13
66021;BME280;52789;59.980;30.346;2023-04-07T12:09:07;102829.38;;;8.62;43.89
66021;BME280;52789;59.980;30.346;2023-04-07T12:11:33;102825.00;;;8.61;44.24
66021;BME280;52789;59.980;30.346;2023-04-07T12:13:58;102837.53;;;8.59;44.20
66021;BME280;52789;59.980;30.346;2023-04-07T12:16:24;102827.00;;;8.57;44.30
66021;BME280;52789;59.980;30.346;2023-04-07T12:18:50;102824.06;;;8.62;44.19
66021;BME280;52789;59.980;30.346;2023-04-07T12:21:18;102823.31;;;8.60;43.81
66021;BME280;52789;59.980;30.346;2023-04-07T12:23:44;102825.56;;;8.66;44.08
66021;BME280;52789;59.980;30.346;2023-04-07T12:26:11;102820.16;;;8.67;43.98
66021;BME280;52789;59.980;30.346;2023-04-07T12:28:37;102820.16;;;8.67;43.41
66021;BME280;52789;59.980;30.346;2023-04-07T12:31:02;102828.22;;;8.66;43.62
66021;BME280;52789;59.980;30.346;2023-04-07T12:33:28;102820.63;;;8.74;44.52
66021;BME280;52789;59.980;30.346;2023-04-07T12:35:55;102816.91;;;8.77;44.00
66021;BME280;52789;59.980;30.346;2023-04-07T12:38:20;102817.66;;;8.79;44.96
66021;BME280;52789;59.980;30.346;2023-04-07T12:40:46;102813.94;;;8.81;44.43
66021;BME280;52789;59.980;30.346;2023-04-07T12:43:11;102826.28;;;8.82;45.28
66021;BME280;52789;59.980;30.346;2023-04-07T12:45:37;102828.19;;;8.80;45.51
66021;BME280;52789;59.980;30.346;2023-04-07T12:48:02;102815.84;;;8.79;45.58
66021;BME280;52789;59.980;30.346;2023-04-07T12:50:28;102820.00;;;8.83;45.85
66021;BME280;52789;59.980;30.346;2023-04-07T12:52:53;102811.69;;;8.75;45.17
66021;BME280;52789;59.980;30.346;2023-04-07T12:55:19;102806.28;;;8.77;46.52
66021;BME280;52789;59.980;30.346;2023-04-07T12:57:45;102805.75;;;8.84;46.14
66021;BME280;52789;59.980;30.346;2023-04-07T13:00:11;102804.81;;;8.85;46.52
66021;BME280;52789;59.980;30.346;2023-04-07T13:02:37;102805.00;;;8.82;45.76
66021;BME280;52789;59.980;30.346;2023-04-07T13:05:02;102807.88;;;8.79;46.07
66021;BME280;52789;59.980;30.346;2023-04-07T13:07:29;102809.03;;;8.75;46.37
66021;BME280;52789;59.980;30.346;2023-04-07T13:09:54;102799.47;;;8.73;47.01